createdAt,value
2018-11-01T00:00:16.408Z,101496.66
2018-11-01T00:03:20.825Z,101494.77
2018-11-01T00:06:25.123Z,101483.73
2018-11-01T00:09:29.417Z,101487.95
2018-11-01T00:12:33.720Z,101486.05
2018-11-01T00:15:38.017Z,101485.89
2018-11-01T00:18:42.347Z,101482.99
2018-11-01T00:21:46.622Z,101486.71
2018-11-01T00:24:50.928Z,101479.62
2018-11-01T00:27:55.206Z,101483.81
2018-11-01T00:30:59.531Z,101484.66
2018-11-01T00:34:03.803Z,101488.52
2018-11-01T00:37:08.137Z,101494.25
2018-11-01T00:40:14.936Z,101493.24
2018-11-01T00:43:19.242Z,101488.64
2018-11-01T00:46:23.528Z,101488.64
2018-11-01T00:49:27.806Z,101491.89
2018-11-01T00:52:32.139Z,101484.08
2018-11-01T00:55:36.437Z,101487.63
2018-11-01T00:58:40.759Z,101486.78
2018-11-01T01:01:45.040Z,101485.73
2018-11-01T01:04:49.337Z,101487.09
2018-11-01T01:07:54.078Z,101483.88
2018-11-01T01:10:58.417Z,101482.84
2018-11-01T01:14:02.690Z,101478.27
2018-11-01T01:17:07.021Z,101485.69
2018-11-01T01:20:13.116Z,101478.92
2018-11-01T01:23:17.393Z,101477.56
2018-11-01T01:26:21.700Z,101476.21
2018-11-01T01:29:26.059Z,101482.45
2018-11-01T01:32:30.284Z,101478.92
2018-11-01T01:35:34.553Z,101473.70
2018-11-01T01:38:38.868Z,101467.43
2018-11-01T01:41:43.141Z,101477.42
2018-11-01T01:44:47.440Z,101462.52
2018-11-01T01:47:51.747Z,101465.42
2018-11-01T01:50:56.075Z,101466.97
2018-11-01T01:54:00.336Z,101468.13
2018-11-01T01:57:04.660Z,101475.44
2018-11-01T02:00:13.679Z,101467.31
2018-11-01T02:03:17.979Z,101465.62
2018-11-01T02:06:22.239Z,101463.95
2018-11-01T02:09:26.550Z,101460.59
2018-11-01T02:12:30.844Z,101456.02
2018-11-01T02:15:35.122Z,101453.52
2018-11-01T02:18:39.441Z,101445.27
2018-11-01T02:21:43.732Z,101444.08
2018-11-01T02:24:48.004Z,101434.48
2018-11-01T02:27:57.474Z,101426.44
2018-11-01T02:31:01.778Z,101427.98
2018-11-01T02:34:06.258Z,101421.41
2018-11-01T02:37:10.560Z,101409.23
2018-11-01T02:40:15.145Z,101405.98
2018-11-01T02:43:19.405Z,101410.05
2018-11-01T02:46:23.698Z,101412.44
2018-11-01T02:49:27.960Z,101409.54
2018-11-01T02:52:32.269Z,101414.95
2018-11-01T02:55:36.882Z,101410.70
2018-11-01T02:58:41.236Z,101412.05
2018-11-01T03:01:45.579Z,101415.92
2018-11-01T03:04:49.881Z,101406.95
2018-11-01T03:07:54.158Z,101398.52
2018-11-01T03:10:58.513Z,101398.83
2018-11-01T03:14:02.808Z,101401.02
2018-11-01T03:17:07.621Z,101406.95
2018-11-01T03:20:12.562Z,101401.22
2018-11-01T03:23:16.883Z,101399.02
2018-11-01T03:26:21.303Z,101398.40
2018-11-01T03:29:25.534Z,101404.20
2018-11-01T03:32:29.842Z,101396.78
2018-11-01T03:35:34.185Z,101390.06
2018-11-01T03:38:38.502Z,101388.78
2018-11-01T03:41:42.800Z,101380.52
2018-11-01T03:44:47.110Z,101378.56
2018-11-01T03:47:51.356Z,101373.34
2018-11-01T03:50:55.839Z,101370.32
2018-11-01T03:54:00.566Z,101371.87
2018-11-01T03:57:07.055Z,101370.59
2018-11-01T04:00:15.359Z,101374.70
2018-11-01T04:03:20.304Z,101367.16
2018-11-01T04:06:26.607Z,101375.47
2018-11-01T04:09:30.961Z,101390.86
2018-11-01T04:12:35.709Z,101380.88
2018-11-01T04:15:41.250Z,101381.92
2018-11-01T04:18:47.586Z,101382.43
2018-11-01T04:21:59.787Z,101378.06
2018-11-01T04:25:05.209Z,101374.39
2018-11-01T04:28:12.349Z,101360.91
2018-11-01T04:31:17.373Z,101350.93
2018-11-01T04:34:22.329Z,101336.31
2018-11-01T04:37:27.811Z,101332.88
2018-11-01T04:40:32.303Z,101327.22
2018-11-01T04:43:36.609Z,101333.09
2018-11-01T04:46:40.886Z,101342.48
2018-11-01T04:49:45.171Z,101341.05
2018-11-01T04:52:49.454Z,101332.73
2018-11-01T04:55:53.761Z,101329.33
2018-11-01T04:58:58.104Z,101326.94
2018-11-01T05:02:02.506Z,101318.50
2018-11-01T05:05:07.816Z,101315.60
2018-11-01T05:08:12.196Z,101309.98
2018-11-01T05:11:16.874Z,101302.41
2018-11-01T05:14:21.197Z,101313.15
2018-11-01T05:17:25.577Z,101322.77
2018-11-01T05:20:29.900Z,101317.16
2018-11-01T05:23:34.180Z,101317.50
2018-11-01T05:26:38.452Z,101308.03
2018-11-01T05:29:42.753Z,101308.03
2018-11-01T05:32:47.012Z,101313.95
2018-11-01T05:35:51.325Z,101307.48
2018-11-01T05:38:55.655Z,101303.88
2018-11-01T05:41:59.933Z,101298.16
2018-11-01T05:45:04.250Z,101301.37
2018-11-01T05:48:08.573Z,101294.09
2018-11-01T05:51:12.880Z,101291.59
2018-11-01T05:54:17.152Z,101294.30
2018-11-01T05:57:21.411Z,101295.11
2018-11-01T06:00:25.748Z,101288.88
2018-11-01T06:03:30.022Z,101286.48
2018-11-01T06:06:34.300Z,101285.63
2018-11-01T06:09:38.662Z,101296.27
2018-11-01T06:12:42.954Z,101296.80
2018-11-01T06:15:47.292Z,101292.03
2018-11-01T06:18:51.633Z,101297.11
2018-11-01T06:21:55.956Z,101293.39
2018-11-01T06:25:00.369Z,101280.87
2018-11-01T06:28:04.784Z,101290.54
2018-11-01T06:31:09.080Z,101297.00
2018-11-01T06:34:21.525Z,101306.48
2018-11-01T06:37:25.829Z,101303.77
2018-11-01T06:40:30.153Z,101306.28
2018-11-01T06:43:34.428Z,101316.91
2018-11-01T06:46:38.724Z,101306.39
2018-11-01T06:49:43.010Z,101305.38
2018-11-01T06:52:47.362Z,101303.09
2018-11-01T06:55:51.633Z,101301.73
2018-11-01T06:58:55.946Z,101303.94
2018-11-01T07:02:00.295Z,101302.78
2018-11-01T07:05:04.840Z,101296.52
2018-11-01T07:08:09.138Z,101292.60
2018-11-01T07:11:13.483Z,101286.14
2018-11-01T07:14:17.734Z,101280.02
2018-11-01T07:17:22.254Z,101274.52
2018-11-01T07:20:26.337Z,101281.22
2018-11-01T07:23:30.681Z,101281.03
2018-11-01T07:26:35.887Z,101276.56
2018-11-01T07:29:39.961Z,101280.53
2018-11-01T07:32:44.303Z,101273.16
2018-11-01T07:35:48.579Z,101277.48
2018-11-01T07:38:52.839Z,101280.42
2018-11-01T07:41:57.103Z,101280.13
2018-11-01T07:45:01.420Z,101283.09
2018-11-01T07:48:06.175Z,101283.12
2018-11-01T07:51:10.432Z,101264.26
2018-11-01T07:54:14.942Z,101265.01
2018-11-01T07:57:19.223Z,101266.30
2018-11-01T08:00:23.508Z,101258.27
2018-11-01T08:03:27.786Z,101263.69
2018-11-01T08:06:32.176Z,101265.15
2018-11-01T08:09:36.432Z,101259.34
2018-11-01T08:12:41.092Z,101261.45
2018-11-01T08:15:45.420Z,101265.92
2018-11-01T08:18:49.691Z,101276.91
2018-11-01T08:21:54.014Z,101270.23
2018-11-01T08:24:58.350Z,101264.73
2018-11-01T08:28:02.722Z,101263.58
2018-11-01T08:31:06.937Z,101260.89
2018-11-01T08:34:11.236Z,101257.36
2018-11-01T08:37:15.538Z,101257.68
2018-11-01T08:40:19.841Z,101261.70
2018-11-01T08:43:24.112Z,101265.14
2018-11-01T08:46:28.340Z,101268.73
2018-11-01T08:49:32.751Z,101283.86
2018-11-01T08:52:36.905Z,101292.05
2018-11-01T08:55:41.172Z,101276.28
2018-11-01T08:58:45.455Z,101262.67
2018-11-01T09:01:49.732Z,101246.05
2018-11-01T09:04:54.037Z,101241.33
2018-11-01T09:07:58.372Z,101246.82
2018-11-01T09:11:02.660Z,101235.37
2018-11-01T09:14:07.535Z,101223.25
2018-11-01T09:17:11.881Z,101216.58
2018-11-01T09:20:16.165Z,101211.62
2018-11-01T09:23:20.460Z,101197.82
2018-11-01T09:26:24.793Z,101202.23
2018-11-01T09:29:29.029Z,101202.58
2018-11-01T09:32:33.341Z,101196.70
2018-11-01T09:35:37.624Z,101189.62
2018-11-01T09:38:41.876Z,101190.02
2018-11-01T09:41:46.360Z,101190.30
2018-11-01T09:44:50.786Z,101192.34
2018-11-01T09:47:55.121Z,101187.34
2018-11-01T09:50:59.453Z,101190.22
2018-11-01T09:54:04.542Z,101175.47
2018-11-01T09:57:08.975Z,101182.34
2018-11-01T10:00:14.582Z,101185.02
2018-11-01T10:03:18.857Z,101178.66
2018-11-01T10:06:23.553Z,101177.24
2018-11-01T10:09:27.991Z,101185.36
2018-11-01T10:12:32.536Z,101186.11
2018-11-01T10:15:37.917Z,101178.61
2018-11-01T10:18:42.290Z,101182.80
2018-11-01T10:21:46.641Z,101178.25
2018-11-01T10:24:51.237Z,101166.57
2018-11-01T10:27:55.750Z,101171.34
2018-11-01T10:31:00.344Z,101171.44
2018-11-01T10:34:04.926Z,101169.84
2018-11-01T10:37:10.542Z,101168.25
2018-11-01T10:40:18.273Z,101172.12
2018-11-01T10:43:22.607Z,101174.61
2018-11-01T10:46:26.979Z,101175.30
2018-11-01T10:49:31.236Z,101170.92
2018-11-01T10:52:35.497Z,101167.02
2018-11-01T10:55:39.773Z,101165.47
2018-11-01T10:58:44.071Z,101165.30
2018-11-01T11:01:53.619Z,101154.55
2018-11-01T11:04:57.875Z,101152.04
2018-11-01T11:08:02.219Z,101146.28
2018-11-01T11:11:06.545Z,101154.50
2018-11-01T11:14:10.885Z,101151.87
2018-11-01T11:17:15.221Z,101141.16
2018-11-01T11:20:19.636Z,101136.52
2018-11-01T11:23:23.798Z,101129.59
2018-11-01T11:26:28.098Z,101129.19
2018-11-01T11:29:32.382Z,101124.33
2018-11-01T11:32:36.650Z,101120.00
2018-11-01T11:35:41.012Z,101112.00
2018-11-01T11:38:45.240Z,101098.78
2018-11-01T11:41:49.574Z,101088.11
2018-11-01T11:44:53.833Z,101080.70
2018-11-01T11:47:58.140Z,101075.59
2018-11-01T11:51:02.465Z,101067.48
2018-11-01T11:54:07.302Z,101067.62
2018-11-01T11:57:11.683Z,101064.94
2018-11-01T12:00:16.643Z,101055.67
2018-11-01T12:03:20.914Z,101062.58
2018-11-01T12:06:25.401Z,101063.23
2018-11-01T12:09:29.548Z,101061.78
2018-11-01T12:12:33.819Z,101053.78
2018-11-01T12:15:38.089Z,101050.69
2018-11-01T12:18:42.369Z,101056.86
2018-11-01T12:21:46.649Z,101055.96
2018-11-01T12:24:50.935Z,101050.73
2018-11-01T12:27:55.216Z,101051.50
2018-11-01T12:30:59.485Z,101051.45
2018-11-01T12:34:03.751Z,101048.67
2018-11-01T12:37:08.062Z,101037.09
2018-11-01T12:40:13.370Z,101032.39
2018-11-01T12:43:17.629Z,101028.77
2018-11-01T12:46:21.923Z,101022.66
2018-11-01T12:49:26.272Z,101020.16
2018-11-01T12:52:30.564Z,101018.95
2018-11-01T12:55:34.824Z,101017.50
2018-11-01T12:58:39.131Z,101007.81
2018-11-01T13:01:43.386Z,101011.62
2018-11-01T13:04:47.631Z,101012.32
2018-11-01T13:07:51.946Z,101002.87
2018-11-01T13:10:56.231Z,100998.78
2018-11-01T13:14:00.515Z,100998.88
2018-11-01T13:17:04.810Z,101000.70
2018-11-01T13:20:09.488Z,100994.96
2018-11-01T13:23:13.769Z,100989.14
2018-11-01T13:26:18.041Z,100992.24
2018-11-01T13:29:22.423Z,100999.00
2018-11-01T13:32:26.677Z,100994.86
2018-11-01T13:35:31.088Z,100995.00
2018-11-01T13:38:35.293Z,100986.77
2018-11-01T13:41:39.620Z,100989.64
2018-11-01T13:44:43.874Z,100985.72
2018-11-01T13:47:48.180Z,100991.12
2018-11-01T13:50:52.504Z,100991.95
2018-11-01T13:53:56.813Z,100980.84
2018-11-01T13:57:01.068Z,100979.80
2018-11-01T14:00:05.611Z,100980.77
2018-11-01T14:03:09.945Z,100973.52
2018-11-01T14:06:14.271Z,100977.69
2018-11-01T14:09:18.575Z,100971.66
2018-11-01T14:12:22.879Z,100962.58
2018-11-01T14:15:27.199Z,100959.16
2018-11-01T14:18:31.491Z,100954.85
2018-11-01T14:21:35.782Z,100951.63
2018-11-01T14:24:40.090Z,100948.45
2018-11-01T14:27:44.490Z,100943.27
2018-11-01T14:30:48.825Z,100942.27
2018-11-01T14:33:53.048Z,100938.64
2018-11-01T14:36:57.374Z,100935.17
2018-11-01T14:40:01.681Z,100925.48
2018-11-01T14:43:06.261Z,100920.95
2018-11-01T14:46:10.617Z,100921.63
2018-11-01T14:49:14.884Z,100913.53
2018-11-01T14:52:19.323Z,100911.39
2018-11-01T14:55:24.401Z,100902.09
2018-11-01T14:58:29.214Z,100897.66
2018-11-01T15:01:32.079Z,100890.47
2018-11-01T15:04:36.361Z,100891.44
2018-11-01T15:07:40.643Z,100888.20
2018-11-01T15:10:44.941Z,100880.56
2018-11-01T15:13:49.280Z,100869.62
2018-11-01T15:16:53.578Z,100872.02
2018-11-01T15:19:57.885Z,100866.34
2018-11-01T15:23:02.143Z,100862.82
2018-11-01T15:26:06.553Z,100869.74
2018-11-01T15:29:10.928Z,100865.83
2018-11-01T15:32:20.446Z,100868.77
2018-11-01T15:35:24.697Z,100877.15
2018-11-01T15:38:29.045Z,100873.30
2018-11-01T15:41:33.346Z,100875.39
2018-11-01T15:44:37.634Z,100876.69
2018-11-01T15:47:42.587Z,100875.84
2018-11-01T15:50:46.947Z,100876.52
2018-11-01T15:53:51.229Z,100871.42
2018-11-01T15:56:55.526Z,100867.28
2018-11-01T15:59:59.817Z,100868.80
2018-11-01T16:03:04.126Z,100867.95
2018-11-01T16:06:08.491Z,100863.26
2018-11-01T16:09:14.055Z,100863.48
2018-11-01T16:12:18.381Z,100852.02
2018-11-01T16:15:22.637Z,100845.64
2018-11-01T16:18:26.975Z,100838.78
2018-11-01T16:21:31.299Z,100840.07
2018-11-01T16:24:35.577Z,100830.78
2018-11-01T16:27:39.854Z,100828.30
2018-11-01T16:30:44.108Z,100827.67
2018-11-01T16:33:48.443Z,100822.75
2018-11-01T16:36:52.797Z,100821.62
2018-11-01T16:39:57.106Z,100827.27
2018-11-01T16:43:01.416Z,100825.62
2018-11-01T16:46:06.675Z,100829.92
2018-11-01T16:49:11.365Z,100832.93
2018-11-01T16:52:15.655Z,100835.65
2018-11-01T16:55:21.273Z,100837.92
2018-11-01T16:58:25.690Z,100829.25
2018-11-01T17:01:30.018Z,100831.13
2018-11-01T17:04:34.373Z,100831.97
2018-11-01T17:07:38.701Z,100831.23
2018-11-01T17:10:43.040Z,100826.83
2018-11-01T17:13:47.362Z,100819.52
2018-11-01T17:16:51.672Z,100820.04
2018-11-01T17:19:56.068Z,100817.55
2018-11-01T17:23:00.397Z,100815.67
2018-11-01T17:26:04.830Z,100816.52
2018-11-01T17:29:09.115Z,100833.03
2018-11-01T17:32:13.459Z,100836.27
2018-11-01T17:35:18.195Z,100839.28
2018-11-01T17:38:22.809Z,100843.68
2018-11-01T17:41:27.097Z,100840.96
2018-11-01T17:44:31.424Z,100830.39
2018-11-01T17:47:35.754Z,100823.08
2018-11-01T17:50:40.123Z,100816.06
2018-11-01T17:53:45.137Z,100821.50
2018-11-01T17:56:49.650Z,100822.86
2018-11-01T17:59:55.712Z,100819.59
2018-11-01T18:03:00.423Z,100806.01
2018-11-01T18:06:04.865Z,100801.12
2018-11-01T18:09:13.165Z,100804.97
2018-11-01T18:12:17.722Z,100809.12
2018-11-01T18:15:22.231Z,100803.39
2018-11-01T18:18:28.571Z,100796.83
2018-11-01T18:21:33.018Z,100799.83
2018-11-01T18:24:38.020Z,100807.91
2018-11-01T18:27:43.213Z,100814.09
2018-11-01T18:30:47.801Z,100818.61
2018-11-01T18:33:52.285Z,100817.55
2018-11-01T18:36:56.785Z,100815.89
2018-11-01T18:40:01.157Z,100822.69
2018-11-01T18:43:05.991Z,100816.12
2018-11-01T18:46:10.509Z,100809.84
2018-11-01T18:49:15.677Z,100805.47
2018-11-01T18:52:19.965Z,100805.47
2018-11-01T18:55:24.393Z,100800.84
2018-11-01T18:58:28.881Z,100794.61
2018-11-01T19:01:33.257Z,100788.55
2018-11-01T19:04:38.485Z,100798.91
2018-11-01T19:07:43.895Z,100792.63
2018-11-01T19:10:48.422Z,100792.63
2018-11-01T19:13:53.224Z,100792.92
2018-11-01T19:16:57.505Z,100787.49
2018-11-01T19:20:01.888Z,100787.81
2018-11-01T19:23:06.330Z,100782.38
2018-11-01T19:26:11.360Z,100777.40
2018-11-01T19:29:15.708Z,100771.97
2018-11-01T19:32:20.243Z,100774.13
2018-11-01T19:35:26.152Z,100776.63
2018-11-01T19:38:32.502Z,100768.48
2018-11-01T19:41:38.134Z,100777.17
2018-11-01T19:44:44.478Z,100777.17
2018-11-01T19:47:49.012Z,100783.86
2018-11-01T19:50:54.087Z,100790.66
2018-11-01T19:54:00.624Z,100781.59
2018-11-01T19:57:05.003Z,100781.01
2018-11-01T20:00:12.394Z,100784.69
2018-11-01T20:03:16.861Z,100786.27
2018-11-01T20:06:21.338Z,100786.78
2018-11-01T20:09:25.717Z,100781.35
2018-11-01T20:12:30.066Z,100776.14
2018-11-01T20:15:34.981Z,100775.30
2018-11-01T20:18:43.270Z,100775.30
2018-11-01T20:21:47.777Z,100771.16
2018-11-01T20:24:52.089Z,100764.30
2018-11-01T20:27:56.578Z,100763.61
2018-11-01T20:31:01.208Z,100761.92
2018-11-01T20:34:07.055Z,100762.48
2018-11-01T20:37:12.548Z,100760.27
2018-11-01T20:40:16.872Z,100765.48
2018-11-01T20:43:21.297Z,100768.20
2018-11-01T20:46:25.744Z,100774.14
2018-11-01T20:49:30.808Z,100783.88
2018-11-01T20:52:35.259Z,100783.64
2018-11-01T20:55:39.659Z,100783.58
2018-11-01T20:58:44.993Z,100787.55
2018-11-01T21:01:50.619Z,100786.73
2018-11-01T21:04:55.438Z,100780.75
2018-11-01T21:08:01.306Z,100769.28
2018-11-01T21:11:05.853Z,100786.23
2018-11-01T21:14:10.131Z,100799.70
2018-11-01T21:17:16.104Z,100791.44
2018-11-01T21:20:22.007Z,100780.80
2018-11-01T21:23:27.515Z,100779.78
2018-11-01T21:26:31.973Z,100783.34
2018-11-01T21:29:37.232Z,100779.16
2018-11-01T21:32:41.694Z,100779.48
2018-11-01T21:35:46.245Z,100782.46
2018-11-01T21:38:50.827Z,100783.82
2018-11-01T21:41:55.143Z,100780.19
2018-11-01T21:44:59.767Z,100781.88
2018-11-01T21:48:04.116Z,100777.00
2018-11-01T21:51:08.503Z,100782.31
2018-11-01T21:54:13.248Z,100796.43
2018-11-01T21:57:17.818Z,100791.23
2018-11-01T22:00:23.442Z,100789.65
2018-11-01T22:03:29.316Z,100789.32
2018-11-01T22:06:35.193Z,100796.55
2018-11-01T22:09:40.451Z,100800.61
2018-11-01T22:12:46.323Z,100809.78
2018-11-01T22:15:51.791Z,100807.88
2018-11-01T22:18:57.200Z,100810.00
2018-11-01T22:22:03.029Z,100805.12
2018-11-01T22:25:09.592Z,100811.39
2018-11-01T22:28:14.762Z,100801.48
2018-11-01T22:31:20.280Z,100803.58
2018-11-01T22:34:25.516Z,100811.13
2018-11-01T22:37:30.366Z,100805.37
2018-11-01T22:40:35.243Z,100815.41
2018-11-01T22:43:41.302Z,100801.84
2018-11-01T22:46:46.109Z,100809.87
2018-11-01T22:49:51.256Z,100814.92
2018-11-01T22:52:56.440Z,100815.33
2018-11-01T22:56:01.193Z,100814.11
2018-11-01T22:59:06.182Z,100813.56
2018-11-01T23:02:12.613Z,100819.70
2018-11-01T23:05:17.820Z,100821.43
2018-11-01T23:08:22.598Z,100821.56
2018-11-01T23:11:27.250Z,100831.69
2018-11-01T23:14:34.163Z,100831.28
2018-11-01T23:17:40.948Z,100839.22
2018-11-01T23:20:46.135Z,100838.50
2018-11-01T23:23:51.751Z,100847.98
2018-11-01T23:26:56.181Z,100838.79
2018-11-01T23:30:01.377Z,100855.98
2018-11-01T23:33:09.684Z,100847.34
2018-11-01T23:36:13.565Z,100837.33
2018-11-01T23:39:23.069Z,100838.77
2018-11-01T23:42:32.572Z,100833.55
2018-11-01T23:45:42.217Z,100835.97
2018-11-01T23:48:49.985Z,100841.07
2018-11-01T23:52:00.384Z,100839.55
2018-11-01T23:55:04.696Z,100836.43
2018-11-01T23:58:09.003Z,100832.80
